Time,TemperatureF,DewpointF,PressureIn,WindDirection,WindDirectionDegrees,WindSpeedMPH,WindSpeedGustMPH,Humidity,HourlyPrecipIn,Conditions,Clouds,dailyrainin,SoftwareType,DateUTC
2013-10-28 00:12:00,66.4,46.0,30.83,East,81,1.0,-999.0,49,-99.99,,,0.00,weatherlink.com 1.10,2013-10-28 05:12:00,
2013-10-28 00:27:00,66.2,46.0,30.82,ENE,75,0.0,-999.0,49,-99.99,,,0.00,weatherlink.com 1.10,2013-10-28 05:27:00,
2013-10-28 00:42:00,66.1,46.0,30.82,ENE,78,0.0,-999.0,48,-99.99,,,0.00,weatherlink.com 1.10,2013-10-28 05:42:00,
2013-10-28 00:57:00,66.1,46.0,30.82,East,79,1.0,-999.0,48,-99.99,,,0.00,weatherlink.com 1.10,2013-10-28 05:57:00,
2013-10-28 01:12:00,65.7,45.0,30.82,ENE,57,0.0,-999.0,48,-99.99,,,0.00,weatherlink.com 1.10,2013-10-28 06:12:00,
2013-10-28 01:27:00,65.2,44.0,30.82,ENE,57,0.0,-999.0,46,-99.99,,,0.00,weatherlink.com 1.10,2013-10-28 06:27:00,
2013-10-28 01:42:00,64.6,43.0,30.81,ENE,57,0.0,-999.0,45,-99.99,,,0.00,weatherlink.com 1.10,2013-10-28 06:42:00,
2013-10-28 01:57:00,64.3,42.0,30.81,ENE,57,0.0,-999.0,45,-99.99,,,0.00,weatherlink.com 1.10,2013-10-28 06:57:00,
2013-10-28 02:12:00,64.1,42.0,30.82,ESE,116,0.0,-999.0,44,-99.99,,,0.00,weatherlink.com 1.10,2013-10-28 07:12:00,
2013-10-28 02:27:00,63.6,41.0,30.82,ESE,115,0.0,-999.0,44,-99.99,,,0.00,weatherlink.com 1.10,2013-10-28 07:27:00,
2013-10-28 02:42:00,63.1,41.0,30.82,ESE,115,0.0,-999.0,44,-99.99,,,0.00,weatherlink.com 1.10,2013-10-28 07:42:00,
2013-10-28 02:57:00,63.0,40.0,30.82,ESE,115,0.0,-999.0,43,-99.99,,,0.00,weatherlink.com 1.10,2013-10-28 07:57:00,
2013-10-28 03:12:00,63.3,40.0,30.82,ESE,115,0.0,-999.0,42,-99.99,,,0.00,weatherlink.com 1.10,2013-10-28 08:12:00,
2013-10-28 03:27:00,63.1,40.0,30.82,ESE,115,0.0,-999.0,43,-99.99,,,0.00,weatherlink.com 1.10,2013-10-28 08:27:00,
2013-10-28 03:42:00,63.1,39.0,30.82,ESE,115,0.0,-999.0,42,-99.99,,,0.00,weatherlink.com 1.10,2013-10-28 08:42:00,
2013-10-28 03:57:00,63.4,39.0,30.83,ESE,116,0.0,-999.0,41,-99.99,,,0.00,weatherlink.com 1.10,2013-10-28 08:57:00,
2013-10-28 04:12:00,63.9,40.0,30.83,ESE,116,0.0,-999.0,41,-99.99,,,0.00,weatherlink.com 1.10,2013-10-28 09:12:00,
2013-10-28 04:27:00,63.5,40.0,30.83,ESE,116,0.0,-999.0,42,-99.99,,,0.00,weatherlink.com 1.10,2013-10-28 09:27:00,
2013-10-28 04:42:00,63.5,40.0,30.83,ESE,115,0.0,-999.0,42,-99.99,,,0.00,weatherlink.com 1.10,2013-10-28 09:42:00,
2013-10-28 04:57:00,63.5,40.0,30.83,ESE,115,0.0,-999.0,42,-99.99,,,0.00,weatherlink.com 1.10,2013-10-28 09:57:00,
2013-10-28 05:12:00,63.7,40.0,30.84,ESE,115,0.0,-999.0,42,-99.99,,,0.00,weatherlink.com 1.10,2013-10-28 10:12:00,
2013-10-28 05:27:00,64.1,40.0,30.84,ESE,115,0.0,-999.0,41,-99.99,,,0.00,weatherlink.com 1.10,2013-10-28 10:27:00,
2013-10-28 05:42:00,64.4,41.0,30.84,ESE,110,0.0,-999.0,42,-99.99,,,0.00,weatherlink.com 1.10,2013-10-28 10:42:00,
2013-10-28 05:57:00,64.8,42.0,30.84,ENE,77,0.0,-999.0,43,-99.99,,,0.00,weatherlink.com 1.10,2013-10-28 10:57:00,
2013-10-28 06:12:00,65.0,42.0,30.84,ENE,72,0.0,-999.0,43,-99.99,,,0.00,weatherlink.com 1.10,2013-10-28 11:12:00,
2013-10-28 06:27:00,65.1,42.0,30.84,ENE,64,1.0,-999.0,43,-99.99,,,0.00,weatherlink.com 1.10,2013-10-28 11:27:00,
2013-10-28 06:42:00,65.3,43.0,30.85,ENE,69,4.0,-999.0,44,-99.99,,,0.00,weatherlink.com 1.10,2013-10-28 11:42:00,
2013-10-28 06:57:00,65.4,43.0,30.85,East,88,3.0,-999.0,44,-99.99,,,0.00,weatherlink.com 1.10,2013-10-28 11:57:00,
2013-10-28 07:12:00,65.3,43.0,30.85,ENE,76,2.0,-999.0,44,-99.99,,,0.00,weatherlink.com 1.10,2013-10-28 12:12:00,
2013-10-28 07:27:00,65.4,43.0,30.86,East,90,2.0,-999.0,45,-99.99,,,0.00,weatherlink.com 1.10,2013-10-28 12:27:00,
2013-10-28 07:42:00,65.2,43.0,30.86,East,96,2.0,-999.0,45,-99.99,,,0.00,weatherlink.com 1.10,2013-10-28 12:42:00,
2013-10-28 07:57:00,65.2,43.0,30.87,ENE,63,5.0,-999.0,44,-99.99,,,0.00,weatherlink.com 1.10,2013-10-28 12:57:00,
2013-10-28 08:12:00,65.2,43.0,30.87,ENE,69,2.0,-999.0,44,-99.99,,,0.00,weatherlink.com 1.10,2013-10-28 13:12:00,
2013-10-28 08:27:00,65.3,43.0,30.87,East,98,3.0,-999.0,44,-99.99,,,0.00,weatherlink.com 1.10,2013-10-28 13:27:00,
2013-10-28 08:42:00,65.6,43.0,30.88,ENE,65,3.0,-999.0,44,-99.99,,,0.00,weatherlink.com 1.10,2013-10-28 13:42:00,
2013-10-28 08:57:00,66.4,44.0,30.88,ENE,77,2.0,-999.0,44,-99.99,,,0.00,weatherlink.com 1.10,2013-10-28 13:57:00,
2013-10-28 09:12:00,67.1,44.0,30.89,ENE,57,4.0,-999.0,44,-99.99,,,0.00,weatherlink.com 1.10,2013-10-28 14:12:00,
2013-10-28 09:28:00,68.8,46.0,30.89,ENE,71,3.0,-999.0,44,-99.99,,,0.00,weatherlink.com 1.10,2013-10-28 14:28:00,
2013-10-28 09:43:00,69.8,49.0,30.90,East,82,2.0,-999.0,47,-99.99,,,0.00,weatherlink.com 1.10,2013-10-28 14:43:00,
2013-10-28 09:58:00,70.7,50.0,30.90,NNE,32,4.0,-999.0,49,-99.99,,,0.00,weatherlink.com 1.10,2013-10-28 14:58:00,
2013-10-28 10:13:00,71.8,51.0,30.90,East,82,4.0,-999.0,49,-99.99,,,0.00,weatherlink.com 1.10,2013-10-28 15:13:00,
2013-10-28 10:28:00,73.7,53.0,30.90,ENE,58,4.0,-999.0,48,-99.99,,,0.00,weatherlink.com 1.10,2013-10-28 15:28:00,
2013-10-28 10:43:00,74.1,55.0,30.90,NE,46,3.0,-999.0,52,-99.99,,,0.00,weatherlink.com 1.10,2013-10-28 15:43:00,
2013-10-28 10:58:00,75.1,56.0,30.90,East,83,1.0,-999.0,52,-99.99,,,0.00,weatherlink.com 1.10,2013-10-28 15:58:00,
2013-10-28 11:13:00,76.6,56.0,30.90,SSE,158,2.0,-999.0,49,-99.99,,,0.00,weatherlink.com 1.10,2013-10-28 16:13:00,
2013-10-28 11:28:00,76.8,58.0,30.90,SE,127,1.0,-999.0,53,-99.99,,,0.00,weatherlink.com 1.10,2013-10-28 16:28:00,
2013-10-28 11:43:00,77.4,59.0,30.89,SE,142,2.0,-999.0,54,-99.99,,,0.00,weatherlink.com 1.10,2013-10-28 16:43:00,
2013-10-28 11:58:00,77.7,60.0,30.89,East,91,0.0,-999.0,55,-99.99,,,0.00,weatherlink.com 1.10,2013-10-28 16:58:00,
2013-10-28 12:13:00,77.9,60.0,30.88,SSE,159,4.0,-999.0,54,-99.99,,,0.00,weatherlink.com 1.10,2013-10-28 17:13:00,
2013-10-28 12:28:00,78.7,64.0,30.88,ESE,110,2.0,-999.0,60,-99.99,,,0.00,weatherlink.com 1.10,2013-10-28 17:28:00,
2013-10-28 12:43:00,78.7,64.0,30.87,South,178,5.0,-999.0,61,-99.99,,,0.00,weatherlink.com 1.10,2013-10-28 17:43:00,
2013-10-28 12:58:00,79.3,65.0,30.86,South,175,6.0,-999.0,62,-99.99,,,0.00,weatherlink.com 1.10,2013-10-28 17:58:00,
2013-10-28 13:13:00,80.0,66.0,30.86,South,183,5.0,-999.0,62,-99.99,,,0.00,weatherlink.com 1.10,2013-10-28 18:13:00,
2013-10-28 13:28:00,80.3,67.0,30.86,SSE,153,5.0,-999.0,64,-99.99,,,0.00,weatherlink.com 1.10,2013-10-28 18:28:00,
2013-10-28 13:43:00,79.7,65.0,30.84,SSE,167,6.0,-999.0,61,-99.99,,,0.00,weatherlink.com 1.10,2013-10-28 18:43:00,
2013-10-28 13:58:00,79.3,66.0,30.84,South,173,4.0,-999.0,64,-99.99,,,0.00,weatherlink.com 1.10,2013-10-28 18:58:00,
2013-10-28 14:13:00,79.8,67.0,30.83,SE,136,3.0,-999.0,64,-99.99,,,0.00,weatherlink.com 1.10,2013-10-28 19:13:00,
2013-10-28 14:28:00,79.9,66.0,30.82,ESE,121,2.0,-999.0,62,-99.99,,,0.00,weatherlink.com 1.10,2013-10-28 19:28:00,
2013-10-28 14:44:00,80.8,68.0,30.82,SSE,157,2.0,-999.0,65,-99.99,,,0.00,weatherlink.com 1.10,2013-10-28 19:44:00,
2013-10-28 14:59:00,81.5,69.0,30.81,ESE,118,3.0,-999.0,65,-99.99,,,0.00,weatherlink.com 1.10,2013-10-28 19:59:00,
2013-10-28 15:14:00,80.6,67.0,30.81,South,169,2.0,-999.0,64,-99.99,,,0.00,weatherlink.com 1.10,2013-10-28 20:14:00,
2013-10-28 15:28:00,80.0,67.0,30.80,SE,138,0.0,-999.0,65,-99.99,,,0.00,weatherlink.com 1.10,2013-10-28 20:28:00,
2013-10-28 15:43:00,80.7,68.0,30.80,East,101,3.0,-999.0,65,-99.99,,,0.00,weatherlink.com 1.10,2013-10-28 20:43:00,
2013-10-28 15:58:00,81.4,69.0,30.80,ESE,119,8.0,-999.0,65,-99.99,,,0.00,weatherlink.com 1.10,2013-10-28 20:58:00,
2013-10-28 16:13:00,81.7,69.0,30.80,East,82,5.0,-999.0,65,-99.99,,,0.00,weatherlink.com 1.10,2013-10-28 21:13:00,
2013-10-28 16:28:00,81.5,69.0,30.80,ESE,106,2.0,-999.0,65,-99.99,,,0.00,weatherlink.com 1.10,2013-10-28 21:28:00,
2013-10-28 16:43:00,82.0,69.0,30.80,SE,138,2.0,-999.0,65,-99.99,,,0.00,weatherlink.com 1.10,2013-10-28 21:43:00,
2013-10-28 16:58:00,82.0,69.0,30.79,ESE,109,4.0,-999.0,65,-99.99,,,0.00,weatherlink.com 1.10,2013-10-28 21:58:00,
2013-10-28 17:13:00,81.0,68.0,30.79,ESE,104,3.0,-999.0,65,-99.99,,,0.00,weatherlink.com 1.10,2013-10-28 22:13:00,
2013-10-28 17:28:00,80.2,67.0,30.79,SE,142,2.0,-999.0,65,-99.99,,,0.00,weatherlink.com 1.10,2013-10-28 22:28:00,
2013-10-28 17:43:00,79.4,67.0,30.80,SE,127,1.0,-999.0,65,-99.99,,,0.00,weatherlink.com 1.10,2013-10-28 22:43:00,
2013-10-28 17:58:00,79.0,66.0,30.79,East,88,1.0,-999.0,64,-99.99,,,0.00,weatherlink.com 1.10,2013-10-28 22:58:00,
2013-10-28 18:13:00,78.6,65.0,30.80,East,86,0.0,-999.0,64,-99.99,,,0.00,weatherlink.com 1.10,2013-10-28 23:13:00,
2013-10-28 18:29:00,78.1,64.0,30.80,East,101,1.0,-999.0,63,-99.99,,,0.00,weatherlink.com 1.10,2013-10-28 23:29:00,
2013-10-28 18:44:00,77.5,63.0,30.80,East,99,2.0,-999.0,61,-99.99,,,0.00,weatherlink.com 1.10,2013-10-28 23:44:00,
2013-10-28 18:59:00,77.2,62.0,30.80,East,82,1.0,-999.0,59,-99.99,,,0.00,weatherlink.com 1.10,2013-10-28 23:59:00,
2013-10-28 19:14:00,76.7,60.0,30.80,ENE,71,2.0,-999.0,57,-99.99,,,0.00,weatherlink.com 1.10,2013-10-29 00:14:00,
2013-10-28 19:28:00,76.6,60.0,30.82,SSE,165,2.0,-999.0,57,-99.99,,,0.00,weatherlink.com 1.10,2013-10-29 00:28:00,
2013-10-28 19:43:00,76.2,60.0,30.83,ESE,118,4.0,-999.0,58,-99.99,,,0.00,weatherlink.com 1.10,2013-10-29 00:43:00,
2013-10-28 19:58:00,75.7,60.0,30.83,SE,132,3.0,-999.0,59,-99.99,,,0.00,weatherlink.com 1.10,2013-10-29 00:58:00,
2013-10-28 20:13:00,75.3,60.0,30.84,SSE,151,3.0,-999.0,60,-99.99,,,0.00,weatherlink.com 1.10,2013-10-29 01:13:00,
2013-10-28 20:28:00,74.8,59.0,30.84,SSE,149,1.0,-999.0,58,-99.99,,,0.00,weatherlink.com 1.10,2013-10-29 01:28:00,
2013-10-28 20:43:00,74.3,57.0,30.85,South,174,3.0,-999.0,56,-99.99,,,0.00,weatherlink.com 1.10,2013-10-29 01:43:00,
2013-10-28 20:58:00,73.7,56.0,30.86,SSE,163,2.0,-999.0,54,-99.99,,,0.00,weatherlink.com 1.10,2013-10-29 01:58:00,
2013-10-28 21:13:00,73.1,54.0,30.86,SE,144,2.0,-999.0,51,-99.99,,,0.00,weatherlink.com 1.10,2013-10-29 02:13:00,
2013-10-28 21:28:00,73.0,53.0,30.86,South,175,2.0,-999.0,50,-99.99,,,0.00,weatherlink.com 1.10,2013-10-29 02:28:00,
2013-10-28 21:43:00,72.8,52.0,30.86,SE,139,1.0,-999.0,49,-99.99,,,0.00,weatherlink.com 1.10,2013-10-29 02:43:00,
2013-10-28 21:58:00,72.5,51.0,30.86,SSE,156,1.0,-999.0,47,-99.99,,,0.00,weatherlink.com 1.10,2013-10-29 02:58:00,
2013-10-28 22:14:00,72.4,51.0,30.86,SSE,158,3.0,-999.0,47,-99.99,,,0.00,weatherlink.com 1.10,2013-10-29 03:14:00,
2013-10-28 22:29:00,72.1,50.0,30.86,SSE,150,1.0,-999.0,46,-99.99,,,0.00,weatherlink.com 1.10,2013-10-29 03:29:00,
2013-10-28 22:44:00,71.8,49.0,30.87,SSE,149,1.0,-999.0,45,-99.99,,,0.00,weatherlink.com 1.10,2013-10-29 03:44:00,
2013-10-28 22:59:00,71.3,48.0,30.87,SSE,151,0.0,-999.0,44,-99.99,,,0.00,weatherlink.com 1.10,2013-10-29 03:59:00,
2013-10-28 23:14:00,71.1,48.0,30.87,SSE,151,0.0,-999.0,44,-99.99,,,0.00,weatherlink.com 1.10,2013-10-29 04:14:00,
2013-10-28 23:28:00,70.8,48.0,30.88,SSE,151,0.0,-999.0,44,-99.99,,,0.00,weatherlink.com 1.10,2013-10-29 04:28:00,
2013-10-28 23:43:00,70.8,46.0,30.87,SSE,148,1.0,-999.0,42,-99.99,,,0.00,weatherlink.com 1.10,2013-10-29 04:43:00,
2013-10-28 23:58:00,70.9,47.0,30.87,SSE,152,2.0,-999.0,42,-99.99,,,0.00,weatherlink.com 1.10,2013-10-29 04:58:00,